Time;durP1;ratioP1;P1;durP2;ratioP2;P2;SDS_P1;SDS_P2;PMS_P1;PMS_P2;Temp;Humidity;BMP_temperature;BMP_pressure;BME280_temperature;BME280_humidity;BME280_pressure;Samples;Min_cycle;Max_cycle;Signal;HPM_P1;HPM_P2
2024/03/31 00:01:10;;;;;;;;;;;13.10;51.10;;;;;;5049129;28;20450;-71
2024/03/31 00:03:37;;;;;;;;;;;13.00;52.00;;;;;;5060208;28;20018;-77
2024/03/31 00:06:03;;;;;;;;;;;12.80;53.10;;;;;;5050586;28;20281;-76
2024/03/31 00:08:29;;;;;;;;;;;12.70;53.60;;;;;;5054771;28;19964;-78
2024/03/31 00:11:07;;;;;;;;;;;12.70;53.30;;;;;;5057460;28;20349;-77
2024/03/31 00:13:34;;;;;;;;;;;12.60;52.80;;;;;;5050235;28;19921;-78
2024/03/31 00:15:59;;;;;;;;;;;12.60;52.50;;;;;;5050602;28;19917;-77
2024/03/31 00:18:26;;;;;;;;;;;12.70;53.00;;;;;;5050555;28;19947;-77
2024/03/31 00:21:11;;;;;;;;;;;12.70;51.90;;;;;;5051206;28;20382;-77
2024/03/31 00:23:37;;;;;;;;;;;12.80;51.70;;;;;;5051914;28;19927;-71
2024/03/31 00:26:03;;;;;;;;;;;12.70;51.40;;;;;;5051571;28;20375;-71
2024/03/31 00:28:29;;;;;;;;;;;12.70;51.20;;;;;;5050292;28;19999;-77
2024/03/31 00:30:55;;;;;;;;;;;12.70;51.40;;;;;;5050825;28;20007;-78
2024/03/31 00:33:40;;;;;;;;;;;12.80;50.90;;;;;;5050334;28;19921;-77
2024/03/31 00:36:06;;;;;;;;;;;12.80;50.50;;;;;;5051479;28;19939;-77
2024/03/31 00:38:32;;;;;;;;;;;12.80;50.50;;;;;;5050046;28;19948;-72
2024/03/31 00:40:57;;;;;;;;;;;12.80;50.70;;;;;;5049220;28;19996;-77
2024/03/31 00:43:23;;;;;;;;;;;12.80;50.70;;;;;;5050484;28;20019;-71
2024/03/31 00:45:49;;;;;;;;;;;12.80;50.60;;;;;;5051114;28;20003;-77
2024/03/31 00:48:15;;;;;;;;;;;12.80;50.70;;;;;;5051653;28;20224;-77
2024/03/31 00:50:41;;;;;;;;;;;12.80;50.30;;;;;;5050562;28;19991;-77
2024/03/31 00:53:07;;;;;;;;;;;12.80;51.20;;;;;;5050084;28;20019;-71
2024/03/31 00:55:33;;;;;;;;;;;12.80;51.80;;;;;;5049707;28;20003;-78
2024/03/31 00:57:58;;;;;;;;;;;12.80;52.50;;;;;;5051600;28;19935;-71
2024/03/31 01:00:25;;;;;;;;;;;12.80;52.40;;;;;;5051207;28;20004;-71
2024/03/31 01:02:50;;;;;;;;;;;12.80;52.80;;;;;;5051633;28;19971;-72
2024/03/31 01:05:16;;;;;;;;;;;12.80;53.50;;;;;;5049821;28;20336;-71
2024/03/31 01:07:42;;;;;;;;;;;12.70;54.00;;;;;;5050542;28;19940;-71
2024/03/31 01:10:10;;;;;;;;;;;12.60;54.50;;;;;;5033082;28;19913;-76
2024/03/31 01:12:36;;;;;;;;;;;12.60;54.70;;;;;;5049867;28;20432;-72
2024/03/31 01:15:02;;;;;;;;;;;12.50;54.00;;;;;;5050677;28;19959;-71
2024/03/31 01:17:28;;;;;;;;;;;12.50;54.80;;;;;;5051183;28;19921;-71
2024/03/31 01:19:54;;;;;;;;;;;12.50;54.70;;;;;;5049736;28;20290;-77
2024/03/31 01:22:20;;;;;;;;;;;12.50;54.00;;;;;;5049720;28;19921;-75
2024/03/31 01:24:46;;;;;;;;;;;12.50;53.70;;;;;;5052427;28;19917;-77
2024/03/31 01:27:12;;;;;;;;;;;12.60;53.30;;;;;;5055543;28;19970;-71
2024/03/31 01:29:38;;;;;;;;;;;12.60;53.60;;;;;;5054758;28;19912;-72
2024/03/31 01:32:04;;;;;;;;;;;12.50;54.60;;;;;;5054289;28;19920;-77
2024/03/31 01:34:31;;;;;;;;;;;12.40;54.80;;;;;;5053268;28;19924;-77
2024/03/31 01:36:57;;;;;;;;;;;12.30;55.20;;;;;;5053345;28;20028;-72
2024/03/31 01:39:23;;;;;;;;;;;12.20;55.60;;;;;;5053117;28;19956;-77
2024/03/31 01:41:49;;;;;;;;;;;12.20;56.10;;;;;;5054528;28;19938;-71
2024/03/31 01:44:15;;;;;;;;;;;12.10;55.30;;;;;;5053584;28;19974;-71
2024/03/31 01:46:41;;;;;;;;;;;12.20;55.80;;;;;;5053660;28;19920;-72
2024/03/31 01:49:07;;;;;;;;;;;12.20;55.80;;;;;;5053787;28;20104;-72
2024/03/31 01:51:33;;;;;;;;;;;12.20;55.60;;;;;;5054464;28;20286;-72
2024/03/31 01:53:59;;;;;;;;;;;12.10;56.20;;;;;;5036714;28;19962;-71
2024/03/31 01:56:25;;;;;;;;;;;12.00;56.70;;;;;;5054003;28;19917;-71
2024/03/31 01:58:51;;;;;;;;;;;12.00;57.30;;;;;;5052721;28;19931;-77
2024/03/31 02:01:16;;;;;;;;;;;11.90;57.20;;;;;;5035488;28;19920;-78
2024/03/31 02:03:42;;;;;;;;;;;11.90;56.80;;;;;;5054450;28;19961;-77
2024/03/31 02:06:09;;;;;;;;;;;11.90;57.00;;;;;;5052597;28;19924;-74
2024/03/31 02:08:35;;;;;;;;;;;11.90;57.20;;;;;;5053368;28;19924;-77
2024/03/31 02:11:01;;;;;;;;;;;11.90;57.20;;;;;;5053403;28;19921;-77
2024/03/31 02:13:27;;;;;;;;;;;11.90;56.50;;;;;;5054331;28;19932;-72
2024/03/31 02:15:54;;;;;;;;;;;11.90;57.10;;;;;;5053583;28;20393;-78
2024/03/31 02:18:20;;;;;;;;;;;11.80;57.00;;;;;;5052820;28;20449;-71
2024/03/31 02:20:46;;;;;;;;;;;11.80;57.40;;;;;;5052190;28;19920;-77
2024/03/31 02:23:12;;;;;;;;;;;11.70;57.50;;;;;;5036654;28;20019;-77
2024/03/31 02:25:38;;;;;;;;;;;11.70;58.00;;;;;;5053948;28;19920;-71
2024/03/31 02:28:04;;;;;;;;;;;11.70;57.90;;;;;;5053044;28;19920;-77
2024/03/31 02:30:30;;;;;;;;;;;11.60;57.60;;;;;;5053551;28;19923;-78
2024/03/31 02:32:56;;;;;;;;;;;11.60;58.30;;;;;;5054084;28;20438;-76
2024/03/31 02:35:22;;;;;;;;;;;11.60;58.30;;;;;;5050880;28;19916;-71
2024/03/31 02:37:48;;;;;;;;;;;11.60;58.40;;;;;;5053689;28;20369;-72
2024/03/31 02:40:15;;;;;;;;;;;11.50;57.40;;;;;;5034765;28;20086;-76
2024/03/31 02:42:43;;;;;;;;;;;11.50;57.80;;;;;;5052113;28;19917;-71
2024/03/31 02:45:08;;;;;;;;;;;11.60;57.90;;;;;;5034960;28;19924;-71
2024/03/31 02:47:35;;;;;;;;;;;11.60;57.90;;;;;;5053547;28;20346;-77
2024/03/31 02:50:01;;;;;;;;;;;11.60;57.30;;;;;;5051896;28;19928;-71
2024/03/31 02:52:27;;;;;;;;;;;11.60;56.60;;;;;;5052848;28;19931;-76
2024/03/31 02:54:53;;;;;;;;;;;11.60;56.80;;;;;;5035305;28;20269;-71
2024/03/31 02:57:19;;;;;;;;;;;11.70;57.00;;;;;;5051494;28;20008;-77
2024/03/31 02:59:45;;;;;;;;;;;11.70;57.00;;;;;;5051469;28;20004;-71
2024/03/31 03:02:11;;;;;;;;;;;11.60;56.60;;;;;;5052458;28;19920;-72
2024/03/31 03:04:36;;;;;;;;;;;11.50;57.00;;;;;;5051668;28;20008;-72
2024/03/31 03:07:02;;;;;;;;;;;11.60;57.10;;;;;;5051497;28;19921;-77
2024/03/31 03:09:28;;;;;;;;;;;11.50;57.30;;;;;;5051369;28;20031;-77
2024/03/31 03:11:54;;;;;;;;;;;11.50;57.30;;;;;;5052319;28;19927;-71
2024/03/31 03:14:21;;;;;;;;;;;11.50;56.90;;;;;;5052629;28;19920;-71
2024/03/31 03:16:48;;;;;;;;;;;11.50;56.70;;;;;;5051129;28;19925;-71
2024/03/31 03:19:14;;;;;;;;;;;11.50;56.70;;;;;;5034636;28;19916;-71
2024/03/31 03:21:40;;;;;;;;;;;11.50;56.60;;;;;;5051985;28;20039;-71
2024/03/31 03:24:06;;;;;;;;;;;11.50;56.50;;;;;;5051229;28;19919;-77
2024/03/31 03:26:32;;;;;;;;;;;11.50;56.10;;;;;;5052158;28;20000;-77
2024/03/31 03:28:58;;;;;;;;;;;11.50;56.50;;;;;;5052361;28;20423;-72
2024/03/31 03:31:24;;;;;;;;;;;11.30;56.90;;;;;;5050497;28;19916;-77
2024/03/31 03:33:50;;;;;;;;;;;11.30;57.30;;;;;;5052678;28;20443;-71
2024/03/31 03:36:16;;;;;;;;;;;11.30;57.80;;;;;;5052230;28;20374;-77
2024/03/31 03:38:42;;;;;;;;;;;11.20;58.10;;;;;;5034598;28;19917;-71
2024/03/31 03:41:08;;;;;;;;;;;11.20;58.50;;;;;;5050301;28;19956;-77
2024/03/31 03:43:34;;;;;;;;;;;11.20;58.80;;;;;;5052484;28;20372;-77
2024/03/31 03:46:00;;;;;;;;;;;11.20;58.60;;;;;;5033863;28;19948;-77
2024/03/31 03:48:26;;;;;;;;;;;11.10;58.70;;;;;;5050657;28;19929;-77
2024/03/31 03:50:53;;;;;;;;;;;11.10;58.60;;;;;;5050089;28;19923;-77
2024/03/31 03:53:19;;;;;;;;;;;11.00;58.30;;;;;;5050786;28;19925;-77
2024/03/31 03:55:45;;;;;;;;;;;11.00;58.10;;;;;;5033937;28;19913;-71
2024/03/31 03:58:11;;;;;;;;;;;11.00;57.20;;;;;;5033930;28;19920;-71
2024/03/31 04:00:56;;;;;;;;;;;11.10;57.80;;;;;;5051226;28;19966;-77
2024/03/31 04:03:23;;;;;;;;;;;11.10;57.50;;;;;;5050809;28;20293;-76
2024/03/31 04:06:07;;;;;;;;;;;11.10;57.30;;;;;;5050286;28;19927;-71
2024/03/31 04:08:33;;;;;;;;;;;11.20;57.10;;;;;;5050771;28;19924;-71
2024/03/31 04:10:59;;;;;;;;;;;11.20;58.20;;;;;;5033019;28;20011;-77
2024/03/31 04:13:25;;;;;;;;;;;11.30;57.30;;;;;;5034020;28;19916;-71
2024/03/31 04:16:00;;;;;;;;;;;11.30;57.10;;;;;;5050325;28;19920;-77
2024/03/31 04:18:26;;;;;;;;;;;11.20;56.90;;;;;;5050521;28;20293;-72
2024/03/31 04:20:52;;;;;;;;;;;11.20;56.30;;;;;;5049441;28;19920;-71
2024/03/31 04:23:18;;;;;;;;;;;11.20;56.50;;;;;;5052045;28;19927;-71
2024/03/31 04:25:44;;;;;;;;;;;11.20;56.50;;;;;;5049956;28;20019;-76
2024/03/31 04:28:10;;;;;;;;;;;11.30;56.50;;;;;;5033718;28;20003;-71
2024/03/31 04:30:55;;;;;;;;;;;11.30;56.50;;;;;;5050865;28;20066;-77
2024/03/31 04:33:20;;;;;;;;;;;11.30;56.40;;;;;;5050377;28;19917;-77
2024/03/31 04:35:46;;;;;;;;;;;11.40;56.50;;;;;;5050084;28;19943;-77
2024/03/31 04:38:12;;;;;;;;;;;11.30;56.60;;;;;;5051665;28;19927;-71
2024/03/31 04:40:38;;;;;;;;;;;11.30;56.80;;;;;;5050729;28;20421;-75
2024/03/31 04:43:04;;;;;;;;;;;11.30;57.20;;;;;;5050172;28;20040;-71
2024/03/31 04:45:31;;;;;;;;;;;11.20;57.30;;;;;;5049764;28;19916;-78
2024/03/31 04:48:01;;;;;;;;;;;11.20;57.30;;;;;;5033617;28;19939;-71
2024/03/31 04:50:27;;;;;;;;;;;11.20;57.70;;;;;;5049655;28;19927;-77
2024/03/31 04:52:53;;;;;;;;;;;11.20;57.80;;;;;;5050243;28;20312;-77
2024/03/31 04:55:19;;;;;;;;;;;11.10;58.00;;;;;;5049858;28;19921;-77
2024/03/31 04:57:45;;;;;;;;;;;11.10;58.40;;;;;;5049863;28;19999;-74
2024/03/31 05:00:11;;;;;;;;;;;11.10;58.50;;;;;;5052556;28;19916;-77
2024/03/31 05:02:37;;;;;;;;;;;11.10;58.40;;;;;;5054045;28;19921;-71
2024/03/31 05:05:03;;;;;;;;;;;11.00;58.20;;;;;;5053820;28;20011;-72
2024/03/31 05:07:29;;;;;;;;;;;11.10;58.00;;;;;;5055348;28;19923;-77
2024/03/31 05:09:55;;;;;;;;;;;11.10;57.80;;;;;;5053616;28;20011;-71
2024/03/31 05:12:20;;;;;;;;;;;11.10;57.80;;;;;;5053167;28;20384;-76
2024/03/31 05:14:46;;;;;;;;;;;11.10;57.80;;;;;;5053462;28;19984;-77
2024/03/31 05:17:12;;;;;;;;;;;11.10;58.10;;;;;;5053552;28;19921;-77
2024/03/31 05:19:38;;;;;;;;;;;11.10;58.00;;;;;;5054024;28;20398;-71
2024/03/31 05:22:04;;;;;;;;;;;11.20;57.50;;;;;;5052891;28;20035;-77
2024/03/31 05:24:30;;;;;;;;;;;11.20;57.30;;;;;;5053449;28;19917;-77
2024/03/31 05:26:56;;;;;;;;;;;11.20;58.00;;;;;;5054684;28;19970;-71
2024/03/31 05:29:22;;;;;;;;;;;11.20;57.40;;;;;;5053314;28;19995;-71
2024/03/31 05:31:48;;;;;;;;;;;11.20;57.40;;;;;;5052791;28;19917;-77
2024/03/31 05:34:14;;;;;;;;;;;11.30;57.30;;;;;;5036581;28;19916;-77
2024/03/31 05:36:40;;;;;;;;;;;11.40;57.00;;;;;;5054675;28;19942;-71
2024/03/31 05:39:06;;;;;;;;;;;11.40;57.50;;;;;;5053138;28;20289;-77
2024/03/31 05:41:32;;;;;;;;;;;11.40;57.70;;;;;;5054136;28;19920;-72
2024/03/31 05:43:58;;;;;;;;;;;11.40;58.40;;;;;;5053156;28;19924;-77
2024/03/31 05:46:24;;;;;;;;;;;11.40;58.60;;;;;;5054107;28;20027;-77
2024/03/31 05:48:49;;;;;;;;;;;11.40;58.80;;;;;;5054226;28;20342;-76
2024/03/31 05:51:17;;;;;;;;;;;11.40;58.70;;;;;;5053859;28;20003;-77
2024/03/31 05:53:43;;;;;;;;;;;11.50;58.60;;;;;;5053186;28;19913;-72
2024/03/31 05:56:09;;;;;;;;;;;11.60;58.40;;;;;;5054274;28;20403;-77
2024/03/31 05:58:35;;;;;;;;;;;11.80;58.00;;;;;;5054106;28;19923;-77
2024/03/31 06:01:01;;;;;;;;;;;11.90;57.60;;;;;;5053501;28;20003;-71
2024/03/31 06:03:27;;;;;;;;;;;12.10;57.20;;;;;;5052904;28;19921;-71
2024/03/31 06:05:53;;;;;;;;;;;12.20;56.90;;;;;;5052517;28;20293;-77
2024/03/31 06:08:19;;;;;;;;;;;12.40;56.80;;;;;;5054412;28;20015;-72
2024/03/31 06:10:45;;;;;;;;;;;12.60;56.50;;;;;;5053334;28;19923;-72
2024/03/31 06:13:10;;;;;;;;;;;12.70;56.00;;;;;;5052623;28;19959;-76
2024/03/31 06:15:37;;;;;;;;;;;12.90;56.20;;;;;;5053679;28;20003;-72
2024/03/31 06:18:03;;;;;;;;;;;13.10;55.50;;;;;;5054210;28;20357;-72
2024/03/31 06:20:29;;;;;;;;;;;13.30;54.60;;;;;;5051890;28;20343;-71
2024/03/31 06:22:55;;;;;;;;;;;13.50;54.20;;;;;;5052319;28;19984;-78
2024/03/31 06:25:21;;;;;;;;;;;13.80;54.00;;;;;;5053353;28;20340;-77
2024/03/31 06:27:47;;;;;;;;;;;14.00;53.90;;;;;;5053656;28;20015;-77
2024/03/31 06:30:13;;;;;;;;;;;14.20;54.80;;;;;;5052837;28;19917;-72
2024/03/31 06:32:38;;;;;;;;;;;14.50;55.00;;;;;;5052470;28;20006;-71
2024/03/31 06:35:04;;;;;;;;;;;14.60;55.20;;;;;;5051986;28;19916;-72
2024/03/31 06:37:30;;;;;;;;;;;14.60;54.70;;;;;;5052359;28;19982;-77
2024/03/31 06:39:56;;;;;;;;;;;14.80;55.40;;;;;;5053402;28;20007;-71
2024/03/31 06:42:22;;;;;;;;;;;14.90;54.80;;;;;;5053052;28;19921;-72
2024/03/31 06:44:48;;;;;;;;;;;15.00;54.20;;;;;;5051837;28;19916;-72
2024/03/31 06:47:14;;;;;;;;;;;15.10;53.90;;;;;;5053334;28;19921;-71
2024/03/31 06:49:40;;;;;;;;;;;15.20;52.80;;;;;;5053584;28;20324;-77
2024/03/31 06:52:06;;;;;;;;;;;15.30;53.00;;;;;;5052722;28;19920;-72
2024/03/31 06:54:32;;;;;;;;;;;15.50;52.90;;;;;;5051831;28;19966;-77
2024/03/31 06:56:58;;;;;;;;;;;15.70;52.40;;;;;;5051661;28;19921;-72
2024/03/31 06:59:23;;;;;;;;;;;15.80;51.80;;;;;;5052059;28;20011;-77
2024/03/31 07:01:49;;;;;;;;;;;16.00;51.90;;;;;;5052432;28;19963;-72
2024/03/31 07:04:15;;;;;;;;;;;16.20;51.70;;;;;;5053159;28;20002;-77
2024/03/31 07:06:42;;;;;;;;;;;16.40;51.10;;;;;;5052950;28;20008;-72
2024/03/31 07:09:08;;;;;;;;;;;16.50;50.60;;;;;;5051613;28;19913;-77
2024/03/31 07:11:34;;;;;;;;;;;16.60;50.80;;;;;;5051096;28;20362;-77
2024/03/31 07:13:59;;;;;;;;;;;16.60;50.10;;;;;;5035744;28;19932;-77
2024/03/31 07:16:26;;;;;;;;;;;16.70;50.40;;;;;;5061046;28;20007;-73
2024/03/31 07:18:52;;;;;;;;;;;16.70;50.00;;;;;;5059738;28;20040;-77
2024/03/31 07:21:18;;;;;;;;;;;16.80;50.80;;;;;;5055636;28;19917;-72
2024/03/31 07:23:44;;;;;;;;;;;16.90;49.60;;;;;;5070878;28;20030;-72
2024/03/31 07:26:11;;;;;;;;;;;17.10;49.40;;;;;;5054353;28;20290;-72
2024/03/31 07:28:37;;;;;;;;;;;17.20;49.10;;;;;;5054247;28;20423;-77
2024/03/31 07:31:03;;;;;;;;;;;17.50;48.40;;;;;;5071825;28;19916;-77
2024/03/31 07:33:29;;;;;;;;;;;17.80;48.20;;;;;;5072293;28;20015;-77
2024/03/31 07:35:55;;;;;;;;;;;18.20;47.30;;;;;;5059124;28;19916;-72
2024/03/31 07:38:21;;;;;;;;;;;18.70;46.80;;;;;;5071358;28;20304;-76
2024/03/31 07:40:47;;;;;;;;;;;19.20;46.70;;;;;;5059479;28;20034;-77
2024/03/31 07:43:13;;;;;;;;;;;19.50;45.60;;;;;;5051124;28;19921;-77
2024/03/31 07:45:38;;;;;;;;;;;19.80;43.60;;;;;;5050933;28;20533;-72
2024/03/31 07:48:05;;;;;;;;;;;20.30;42.80;;;;;;5052728;28;19999;-72
2024/03/31 07:50:31;;;;;;;;;;;20.50;39.80;;;;;;5033531;28;20352;-72
2024/03/31 07:52:57;;;;;;;;;;;20.80;40.20;;;;;;5050700;28;19975;-71
2024/03/31 07:55:22;;;;;;;;;;;20.90;41.10;;;;;;5051925;28;20355;-72
2024/03/31 07:57:51;;;;;;;;;;;21.00;41.00;;;;;;5049998;28;20004;-71
2024/03/31 08:00:16;;;;;;;;;;;21.20;39.30;;;;;;5051000;28;19921;-77
2024/03/31 08:02:42;;;;;;;;;;;21.20;39.30;;;;;;5049814;28;19971;-77
2024/03/31 08:05:09;;;;;;;;;;;21.20;38.50;;;;;;5051786;28;20007;-72
2024/03/31 08:07:35;;;;;;;;;;;21.30;39.70;;;;;;5034006;28;20028;-77
2024/03/31 08:10:03;;;;;;;;;;;21.50;38.70;;;;;;5050476;28;20007;-77
2024/03/31 08:12:29;;;;;;;;;;;21.90;37.80;;;;;;5050336;28;20314;-72
2024/03/31 08:14:55;;;;;;;;;;;22.30;36.90;;;;;;5050347;28;19923;-72
2024/03/31 08:17:20;;;;;;;;;;;22.70;36.00;;;;;;5051756;28;20352;-71
2024/03/31 08:19:46;;;;;;;;;;;22.80;34.70;;;;;;5051421;28;20396;-70
2024/03/31 08:22:12;;;;;;;;;;;23.00;31.00;;;;;;5049854;28;20007;-75
2024/03/31 08:24:38;;;;;;;;;;;23.30;30.10;;;;;;5050216;28;20015;-77
2024/03/31 08:27:04;;;;;;;;;;;23.50;30.20;;;;;;5051100;28;20015;-77
2024/03/31 08:29:30;;;;;;;;;;;23.70;30.20;;;;;;5051390;28;19912;-72
2024/03/31 08:31:56;;;;;;;;;;;24.00;29.80;;;;;;5049484;28;19921;-77
2024/03/31 08:34:21;;;;;;;;;;;24.30;29.00;;;;;;5049215;28;19919;-72
2024/03/31 08:36:47;;;;;;;;;;;24.60;28.90;;;;;;5055772;28;19924;-72
2024/03/31 08:39:13;;;;;;;;;;;24.70;28.40;;;;;;5053913;28;19920;-73
2024/03/31 08:41:59;;;;;;;;;;;24.90;28.40;;;;;;5064944;28;20011;-73
2024/03/31 08:44:25;;;;;;;;;;;25.60;26.60;;;;;;5061776;28;19920;-75
2024/03/31 08:46:52;;;;;;;;;;;26.30;25.80;;;;;;5051117;28;20301;-74
2024/03/31 08:49:19;;;;;;;;;;;26.60;24.30;;;;;;5062663;28;19921;-73
2024/03/31 08:51:45;;;;;;;;;;;26.90;24.60;;;;;;5053452;28;19952;-74
2024/03/31 08:54:11;;;;;;;;;;;27.80;24.60;;;;;;5050345;28;19924;-77
2024/03/31 08:56:37;;;;;;;;;;;28.40;23.80;;;;;;5055100;28;19921;-73
2024/03/31 08:59:03;;;;;;;;;;;29.10;23.90;;;;;;5060078;28;20004;-74
2024/03/31 09:01:30;;;;;;;;;;;29.30;21.50;;;;;;5049310;28;20290;-77
2024/03/31 09:03:56;;;;;;;;;;;29.60;20.90;;;;;;5056501;28;19920;-77
2024/03/31 09:06:23;;;;;;;;;;;30.00;21.10;;;;;;5063035;28;19959;-77
2024/03/31 09:09:08;;;;;;;;;;;30.30;19.50;;;;;;5061076;28;19924;-73
2024/03/31 09:11:34;;;;;;;;;;;30.70;19.00;;;;;;5049887;28;20386;-77
2024/03/31 09:14:00;;;;;;;;;;;30.50;18.80;;;;;;5051005;28;19925;-73
2024/03/31 09:16:26;;;;;;;;;;;30.90;18.80;;;;;;5062204;28;20007;-77
2024/03/31 09:18:52;;;;;;;;;;;31.50;19.10;;;;;;5070881;28;19924;-74
2024/03/31 09:21:18;;;;;;;;;;;32.00;18.50;;;;;;5067340;28;19926;-76
2024/03/31 09:23:45;;;;;;;;;;;32.40;15.90;;;;;;5071343;28;19916;-76
2024/03/31 09:26:11;;;;;;;;;;;32.80;16.80;;;;;;5069546;28;19927;-75
2024/03/31 09:28:37;;;;;;;;;;;33.10;16.90;;;;;;5066644;28;19920;-75
2024/03/31 09:31:03;;;;;;;;;;;33.30;16.90;;;;;;5064353;28;19982;-74
2024/03/31 09:33:48;;;;;;;;;;;33.50;16.50;;;;;;5053094;28;19927;-75
2024/03/31 09:36:16;;;;;;;;;;;33.90;16.00;;;;;;5057675;28;20020;-75
2024/03/31 09:38:42;;;;;;;;;;;34.00;15.40;;;;;;5063701;28;19920;-75
2024/03/31 09:41:08;;;;;;;;;;;34.50;15.00;;;;;;5064679;28;19967;-74
2024/03/31 09:43:34;;;;;;;;;;;34.90;15.10;;;;;;5052537;28;19924;-74
2024/03/31 09:46:00;;;;;;;;;;;35.10;15.90;;;;;;5067089;28;20408;-74
2024/03/31 09:48:26;;;;;;;;;;;35.30;14.90;;;;;;5069087;28;19938;-74
2024/03/31 09:51:29;;;;;;;;;;;35.30;14.60;;;;;;5073249;28;20365;-73
2024/03/31 09:54:19;;;;;;;;;;;35.50;14.50;;;;;;5062523;28;20548;-74
2024/03/31 09:57:10;;;;;;;;;;;35.40;13.70;;;;;;5058986;28;20402;-75
2024/03/31 09:59:49;;;;;;;;;;;35.80;13.00;;;;;;5070938;28;20332;-76
2024/03/31 10:02:16;;;;;;;;;;;36.40;13.80;;;;;;5072202;28;20358;-75
2024/03/31 10:05:06;;;;;;;;;;;37.00;14.30;;;;;;5055935;28;19913;-75
2024/03/31 10:07:32;;;;;;;;;;;37.40;13.40;;;;;;5072906;28;20369;-74
2024/03/31 10:10:01;;;;;;;;;;;37.50;12.20;;;;;;5055702;28;19921;-74
2024/03/31 10:12:29;;;;;;;;;;;37.70;12.40;;;;;;5064843;28;19995;-74
2024/03/31 10:14:56;;;;;;;;;;;37.90;12.50;;;;;;5064730;28;20343;-75
2024/03/31 10:17:22;;;;;;;;;;;38.30;13.40;;;;;;5089468;28;20276;-74
2024/03/31 10:19:50;;;;;;;;;;;38.60;11.90;;;;;;5089340;28;19923;-73
2024/03/31 10:22:16;;;;;;;;;;;38.80;12.80;;;;;;5071911;28;20204;-74
2024/03/31 10:24:43;;;;;;;;;;;38.80;11.80;;;;;;5089108;28;20389;-74
2024/03/31 10:27:09;;;;;;;;;;;39.00;12.10;;;;;;5063148;28;19920;-73
2024/03/31 10:29:38;;;;;;;;;;;39.10;12.80;;;;;;5060273;28;19917;-75
2024/03/31 10:32:04;;;;;;;;;;;39.40;11.90;;;;;;5060752;28;19920;-73
2024/03/31 10:34:30;;;;;;;;;;;39.20;12.00;;;;;;5060111;28;19916;-74
2024/03/31 10:36:56;;;;;;;;;;;38.70;11.80;;;;;;5069754;28;19966;-76
2024/03/31 10:39:23;;;;;;;;;;;38.30;10.90;;;;;;5062498;28;19923;-74
2024/03/31 10:41:50;;;;;;;;;;;38.20;12.00;;;;;;5034529;28;19921;-74
2024/03/31 10:44:16;;;;;;;;;;;38.30;12.90;;;;;;5061167;28;20196;-74
2024/03/31 10:46:43;;;;;;;;;;;38.30;12.40;;;;;;5088413;28;20011;-73
2024/03/31 10:49:09;;;;;;;;;;;38.10;12.30;;;;;;5071852;28;19913;-75
2024/03/31 10:51:40;;;;;;;;;;;38.40;12.70;;;;;;5071200;28;20417;-75
2024/03/31 10:54:36;;;;;;;;;;;38.70;11.60;;;;;;5061461;28;19920;-73
2024/03/31 10:57:22;;;;;;;;;;;38.60;12.10;;;;;;5050813;28;19917;-76
2024/03/31 10:59:48;;;;;;;;;;;38.80;12.10;;;;;;5065277;28;20297;-74
2024/03/31 11:02:34;;;;;;;;;;;38.10;12.70;;;;;;5067826;28;20415;-75
2024/03/31 11:05:05;;;;;;;;;;;37.70;11.50;;;;;;5067206;28;19950;-74
2024/03/31 11:07:35;;;;;;;;;;;37.30;13.20;;;;;;5071109;28;19920;-75
2024/03/31 11:10:05;;;;;;;;;;;36.90;11.80;;;;;;5070733;28;19912;-74
2024/03/31 11:12:31;;;;;;;;;;;36.60;13.50;;;;;;5054867;28;20320;-75
2024/03/31 11:14:57;;;;;;;;;;;36.80;13.40;;;;;;5071311;28;20007;-73
2024/03/31 11:17:24;;;;;;;;;;;37.00;14.10;;;;;;5072655;28;19950;-75
2024/03/31 11:19:51;;;;;;;;;;;37.10;13.60;;;;;;5050641;28;20417;-74
2024/03/31 11:22:20;;;;;;;;;;;37.70;12.50;;;;;;5053709;28;19924;-75
2024/03/31 11:24:46;;;;;;;;;;;38.40;13.20;;;;;;5071060;28;19919;-75
2024/03/31 11:27:12;;;;;;;;;;;38.20;12.60;;;;;;5072259;28;19921;-75
2024/03/31 11:29:38;;;;;;;;;;;38.60;12.30;;;;;;5069710;28;19912;-73
2024/03/31 11:32:05;;;;;;;;;;;39.00;13.20;;;;;;5063419;28;20374;-75
2024/03/31 11:34:31;;;;;;;;;;;38.40;10.90;;;;;;5054163;28;19919;-73
2024/03/31 11:36:57;;;;;;;;;;;36.40;13.50;;;;;;5056403;28;20373;-73
2024/03/31 11:39:23;;;;;;;;;;;36.10;14.00;;;;;;5058519;28;19977;-76
2024/03/31 11:41:49;;;;;;;;;;;35.60;14.60;;;;;;5061160;28;20353;-73
2024/03/31 11:44:15;;;;;;;;;;;35.00;14.00;;;;;;5056560;28;20282;-74
2024/03/31 11:46:41;;;;;;;;;;;34.40;15.10;;;;;;5033848;28;20347;-76
2024/03/31 11:49:07;;;;;;;;;;;34.10;14.40;;;;;;5044289;28;19919;-75
2024/03/31 11:51:37;;;;;;;;;;;34.20;15.80;;;;;;5069927;28;19920;-75
2024/03/31 11:54:04;;;;;;;;;;;34.50;15.40;;;;;;5074611;28;20263;-76
2024/03/31 11:56:30;;;;;;;;;;;34.80;15.30;;;;;;5060591;28;19923;-73
2024/03/31 11:58:56;;;;;;;;;;;34.70;14.00;;;;;;5057302;28;19920;-73
2024/03/31 12:01:25;;;;;;;;;;;34.60;14.80;;;;;;5064461;28;19920;-75
2024/03/31 12:07:13;;;;;;;;;;;32.80;16.10;;;;;;5063397;28;20014;-74
2024/03/31 12:09:39;;;;;;;;;;;31.90;17.50;;;;;;5069820;28;19935;-73
2024/03/31 12:12:06;;;;;;;;;;;31.10;18.50;;;;;;5049180;28;19946;-73
2024/03/31 12:14:32;;;;;;;;;;;30.30;19.00;;;;;;5050328;28;19916;-73
2024/03/31 12:16:57;;;;;;;;;;;29.70;19.10;;;;;;5033386;28;20324;-75
2024/03/31 12:19:23;;;;;;;;;;;29.20;20.20;;;;;;5050358;28;19919;-73
2024/03/31 12:21:49;;;;;;;;;;;28.80;19.90;;;;;;5050953;28;19963;-73
2024/03/31 12:24:16;;;;;;;;;;;28.30;20.80;;;;;;5053180;28;20323;-75
2024/03/31 12:26:42;;;;;;;;;;;27.80;21.00;;;;;;5087027;28;19943;-75
2024/03/31 12:29:09;;;;;;;;;;;27.50;21.70;;;;;;5070083;28;19912;-75
2024/03/31 12:31:35;;;;;;;;;;;27.10;23.20;;;;;;5071012;28;19923;-72
2024/03/31 12:34:02;;;;;;;;;;;27.00;24.50;;;;;;5064201;28;19928;-72
2024/03/31 12:36:29;;;;;;;;;;;26.70;23.40;;;;;;5067717;28;20347;-75
2024/03/31 12:38:55;;;;;;;;;;;26.50;24.40;;;;;;5062249;28;19921;-76
2024/03/31 12:41:21;;;;;;;;;;;26.10;24.00;;;;;;5062552;28;19920;-75
2024/03/31 12:43:47;;;;;;;;;;;25.80;23.90;;;;;;5048681;28;20302;-72
2024/03/31 12:46:14;;;;;;;;;;;25.60;25.30;;;;;;5066096;28;20378;-72
2024/03/31 12:48:41;;;;;;;;;;;25.30;25.40;;;;;;5066914;28;20008;-71
2024/03/31 12:51:07;;;;;;;;;;;25.20;25.20;;;;;;5069024;28;19961;-71
2024/03/31 12:53:52;;;;;;;;;;;25.10;24.90;;;;;;5071697;28;19931;-76
2024/03/31 12:56:18;;;;;;;;;;;25.10;26.00;;;;;;5069698;28;19916;-75
2024/03/31 12:58:47;;;;;;;;;;;24.80;24.30;;;;;;5072403;28;19920;-71
2024/03/31 13:01:19;;;;;;;;;;;24.70;25.50;;;;;;5069225;28;19917;-76
2024/03/31 13:03:45;;;;;;;;;;;24.70;26.40;;;;;;5068868;28;19924;-71
2024/03/31 13:06:11;;;;;;;;;;;24.60;25.40;;;;;;5069789;28;19912;-76
2024/03/31 13:08:38;;;;;;;;;;;24.60;25.80;;;;;;5070111;28;19931;-76
2024/03/31 13:11:04;;;;;;;;;;;24.50;27.00;;;;;;5070663;28;19959;-76
2024/03/31 13:13:30;;;;;;;;;;;24.40;26.10;;;;;;5070029;28;19925;-75
2024/03/31 13:15:56;;;;;;;;;;;24.30;26.70;;;;;;5069676;28;20384;-71
2024/03/31 13:18:22;;;;;;;;;;;24.10;26.60;;;;;;5071252;28;19920;-75
2024/03/31 13:20:48;;;;;;;;;;;24.10;26.70;;;;;;5051445;28;20377;-76
2024/03/31 13:23:14;;;;;;;;;;;24.00;27.20;;;;;;5053657;28;20004;-71
2024/03/31 13:25:40;;;;;;;;;;;23.90;26.70;;;;;;5067496;28;19936;-71
2024/03/31 13:28:06;;;;;;;;;;;23.90;27.10;;;;;;5073595;28;19920;-75
2024/03/31 13:30:34;;;;;;;;;;;23.80;27.00;;;;;;5072653;28;19916;-76
2024/03/31 13:33:00;;;;;;;;;;;23.80;27.20;;;;;;5073697;28;19972;-71
2024/03/31 13:35:26;;;;;;;;;;;23.70;27.00;;;;;;5073066;28;19920;-71
2024/03/31 13:37:52;;;;;;;;;;;23.70;27.70;;;;;;5074205;28;19920;-75
2024/03/31 13:40:18;;;;;;;;;;;23.70;27.90;;;;;;5073953;28;20329;-72
2024/03/31 13:42:44;;;;;;;;;;;23.70;27.50;;;;;;5073379;28;20332;-71
2024/03/31 13:45:10;;;;;;;;;;;23.70;29.20;;;;;;5047794;28;19923;-71
2024/03/31 13:47:36;;;;;;;;;;;23.90;27.80;;;;;;5069145;28;19924;-76
2024/03/31 13:50:03;;;;;;;;;;;23.90;27.60;;;;;;5062310;28;19987;-78
2024/03/31 13:52:29;;;;;;;;;;;24.30;28.30;;;;;;5063376;28;19924;-76
2024/03/31 13:54:55;;;;;;;;;;;25.10;27.80;;;;;;5069540;28;19923;-72
2024/03/31 13:57:22;;;;;;;;;;;25.30;27.50;;;;;;5072159;28;19971;-76
2024/03/31 13:59:49;;;;;;;;;;;25.20;28.00;;;;;;5065920;28;20337;-76
2024/03/31 14:02:15;;;;;;;;;;;25.00;27.50;;;;;;5071555;28;20215;-71
2024/03/31 14:04:40;;;;;;;;;;;25.80;26.60;;;;;;5072869;28;20455;-72
2024/03/31 14:07:06;;;;;;;;;;;26.10;25.70;;;;;;5073650;28;19960;-72
2024/03/31 14:09:32;;;;;;;;;;;25.80;25.90;;;;;;5071419;28;19984;-76
2024/03/31 14:11:58;;;;;;;;;;;25.40;26.10;;;;;;5053218;28;19931;-71
2024/03/31 14:14:24;;;;;;;;;;;24.90;26.60;;;;;;5053544;28;19912;-72
2024/03/31 14:16:50;;;;;;;;;;;24.60;27.70;;;;;;5053632;28;19925;-76
2024/03/31 14:19:16;;;;;;;;;;;24.30;27.60;;;;;;5072552;28;19912;-72